Colfax, WA (99111)

6:04 AM PDT on August 04, 2015 (GMT -0700)
Barclay Ridge | | Change Station
CLOSE
Current Station
Personal Weather Station
Location: Pullman, WA
Elevation: 2644 ft
Nearby Weather Stations
Active Advisory: Fire Weather Warning

Elev 2644 ft 46.73 °N, 117.21 °W | Updated 4 minutes ago

Partly Cloudy
Partly Cloudy
65.7 °F
Feels Like 65.7 °F
N
0.0
Wind Variable Wind from WSW

Today
High -- | Low -- °F
--% Chance of Precip.
Yesterday
High -- | Low -- °F
Precip. -- in
5:32 AM 8:17 PM
Waning Gibbous, 78% visible
Pressure 29.92 in
Visibility 10.0 miles
Clouds Mostly Cloudy 12000 ft
Dew Point 46 °F
Humidity 50%
Rainfall 0.00 in
Snow Depth Not available.
UV 0 out of 12
Pollen 6.70 out of 12
Air Quality Not available.
Flu Activity Not available.
METAR KPUW 041253Z AUTO 00000KT 10SM BKN120 14/08 A2996 RMK AO2 SLP130 T01440078

More Conditions Fewer Conditions

Pressure 29.92 in
Visibility 10.0 miles
Clouds Mostly Cloudy 12000 ft
Dew Point 46 °F
Humidity 50%
Rainfall 0.00 in
Snow Depth Not available.
UV 0 out of 12
Pollen 6.70 out of 12
Air Quality Not available.
Flu Activity Not available.
METAR KPUW 041253Z AUTO 00000KT 10SM BKN120 14/08 A2996 RMK AO2 SLP130 T01440078

More Conditions Fewer Conditions

10-Day Weather Forecast

×

Almanac

Astronomy

Aug. 04, 2015 Rise Set
Actual Time
Civil Twilight
Nautical Twilight
Astronomical Twilight
Moon
Length of Visible Light
Length of Day
Tomorrow will be .
, % of the Moon is Illuminated

Today's Extremes

State Highs State Lows

Community

WunderPhotos

Upload Photos

1,843,914 photos uploaded!

WunderBlogs® & News

Nearby

Air Quality

  Air Quality AQ Index Pollutant
Not available.

Snow Depth

Station Depth Elevation

Earthquake Activity

City Distance Mag. Time & Date
Minimum magnitude displayed is 2.5.

Coastal Water Temperatures

Place Temperature

Stations

Nearby Weather Stations

Station Location Temp. Windchill Dew Point Humidity Wind Precip. Elev Updated Type
                   
Fire Weather Warning
Statement as of 5:56 AM PDT on August 04, 2015

... Red flag warning remains in effect until 9 PM PDT Wednesday
for wind and low relative humidity for wind and low relative
humidity for fwz 673... 674 and 677...

* affected area: fire weather zone 673 East Washington northern
Columbia Basin (zone 673)... fire weather zone 674 East
Washington Palouse and Spokane area (zone 674) and fire
weather zone 677 East Washington central Cascade valleys (zone
677).

* Winds: west 10 to 20 mph with gusts up to 30 mph.

* Relative humidities: 10 to 24 percent.

* Impacts: rapid fire spread is possible with any new or ongoing
fires.

Precautionary/preparedness actions...

A red flag warning means that critical fire weather conditions
are either occurring now... or will shortly. A combination of
strong winds... low relative humidity... and warm temperatures will
create extreme fire growth potential.